createdAt,value
2022-12-15T00:02:04.695Z,-0.30
2022-12-15T00:04:55.935Z,-0.30
2022-12-15T00:07:46.726Z,-0.30
2022-12-15T00:10:38.350Z,-0.30
2022-12-15T00:13:32.254Z,-0.30
2022-12-15T00:16:24.631Z,-0.30
2022-12-15T00:19:15.436Z,-0.20
2022-12-15T00:22:06.042Z,-0.20
2022-12-15T00:24:57.015Z,-0.20
2022-12-15T00:27:48.235Z,-0.10
2022-12-15T00:30:40.435Z,-0.10
2022-12-15T00:33:31.863Z,-0.10
2022-12-15T00:36:23.674Z,-0.10
2022-12-15T00:39:01.890Z,-0.10
2022-12-15T00:41:36.942Z,-0.10
2022-12-15T00:44:11.646Z,-0.10
2022-12-15T00:46:57.381Z,-0.10
2022-12-15T00:49:49.308Z,-0.10
2022-12-15T00:52:40.180Z,-0.10
2022-12-15T00:55:30.782Z,-0.20
2022-12-15T00:58:21.654Z,-0.10
2022-12-15T01:01:12.230Z,-0.10
2022-12-15T01:04:05.020Z,-0.10
2022-12-15T01:06:55.889Z,-0.10
2022-12-15T01:09:46.640Z,-0.10
2022-12-15T01:12:37.626Z,-0.10
2022-12-15T01:15:28.539Z,-0.10
2022-12-15T01:18:19.345Z,0.00
2022-12-15T01:20:58.470Z,0.00
2022-12-15T01:23:33.182Z,0.00
2022-12-15T01:26:08.449Z,0.00
2022-12-15T01:28:42.161Z,0.10
2022-12-15T01:31:15.919Z,0.10
2022-12-15T01:33:49.232Z,0.10
2022-12-15T01:36:24.100Z,0.20
2022-12-15T01:38:57.550Z,0.20
2022-12-15T01:41:29.990Z,0.20
2022-12-15T01:44:16.296Z,0.20
2022-12-15T01:46:53.183Z,0.20
2022-12-15T01:49:30.605Z,0.20
2022-12-15T01:52:07.791Z,0.30
2022-12-15T01:54:45.760Z,0.30
2022-12-15T01:57:28.029Z,0.30
2022-12-15T02:00:03.858Z,0.20
2022-12-15T02:02:40.747Z,0.20
2022-12-15T02:05:15.110Z,0.20
2022-12-15T02:07:49.947Z,0.20
2022-12-15T02:10:26.170Z,0.20
2022-12-15T02:13:10.785Z,0.20
2022-12-15T02:15:50.262Z,0.20
2022-12-15T02:18:29.330Z,0.20
2022-12-15T02:21:07.979Z,0.10
2022-12-15T02:24:17.493Z,0.20
2022-12-15T02:27:25.382Z,0.20
2022-12-15T02:30:26.577Z,0.20
2022-12-15T02:33:07.050Z,0.20
2022-12-15T02:35:49.203Z,0.20
2022-12-15T02:38:34.450Z,0.20
2022-12-15T02:41:23.208Z,0.20
2022-12-15T02:43:56.575Z,0.20
2022-12-15T02:46:39.325Z,0.30
2022-12-15T02:49:23.780Z,0.30
2022-12-15T02:52:08.867Z,0.30
2022-12-15T02:55:04.310Z,0.30
2022-12-15T02:57:46.996Z,0.30
2022-12-15T03:00:20.915Z,0.30
2022-12-15T03:02:57.358Z,0.30
2022-12-15T03:05:32.957Z,0.30
2022-12-15T03:08:06.701Z,0.20
2022-12-15T03:10:40.091Z,0.20
2022-12-15T03:13:14.417Z,0.20
2022-12-15T03:15:47.953Z,0.20
2022-12-15T03:18:23.073Z,0.20
2022-12-15T03:20:56.788Z,0.20
2022-12-15T03:23:30.846Z,0.20
2022-12-15T03:26:04.509Z,0.20
2022-12-15T03:28:38.139Z,0.20
2022-12-15T03:31:11.864Z,0.20
2022-12-15T03:33:46.552Z,0.20
2022-12-15T03:36:19.999Z,0.20
2022-12-15T03:38:53.279Z,0.20
2022-12-15T03:41:27.881Z,0.20
2022-12-15T03:44:01.816Z,0.20
2022-12-15T03:46:35.475Z,0.20
2022-12-15T03:49:10.324Z,0.20
2022-12-15T03:51:45.046Z,0.20
2022-12-15T03:54:18.776Z,0.20
2022-12-15T03:56:52.039Z,0.20
2022-12-15T03:59:26.146Z,0.20
2022-12-15T04:01:59.499Z,0.20
2022-12-15T04:04:34.763Z,0.20
2022-12-15T04:07:09.581Z,0.20
2022-12-15T04:09:42.953Z,0.20
2022-12-15T04:12:16.583Z,0.20
2022-12-15T04:14:49.862Z,0.20
2022-12-15T04:17:23.571Z,0.10
2022-12-15T04:20:10.569Z,0.20
2022-12-15T04:22:45.849Z,0.10
2022-12-15T04:25:38.806Z,0.10
2022-12-15T04:28:30.763Z,0.10
2022-12-15T04:31:26.193Z,0.10
2022-12-15T04:34:19.805Z,0.10
2022-12-15T04:37:12.817Z,0.10
2022-12-15T04:40:08.005Z,0.10
2022-12-15T04:43:01.454Z,0.10
2022-12-15T04:45:52.205Z,0.10
2022-12-15T04:48:43.500Z,0.10
2022-12-15T04:51:34.361Z,0.10
2022-12-15T04:54:26.817Z,0.20
2022-12-15T04:57:17.396Z,0.20
2022-12-15T05:00:08.345Z,0.20
2022-12-15T05:02:58.823Z,0.20
2022-12-15T05:05:49.439Z,0.10
2022-12-15T05:08:39.957Z,0.20
2022-12-15T05:11:32.148Z,0.10
2022-12-15T05:14:23.204Z,0.10
2022-12-15T05:17:13.812Z,0.10
2022-12-15T05:20:04.730Z,0.10
2022-12-15T05:22:55.456Z,0.10
2022-12-15T05:25:45.997Z,0.10
2022-12-15T05:28:38.693Z,0.20
2022-12-15T05:31:29.800Z,0.10
2022-12-15T05:34:05.669Z,0.10
2022-12-15T05:36:39.275Z,0.10
2022-12-15T05:39:12.710Z,0.10
2022-12-15T05:41:46.003Z,0.10
2022-12-15T05:44:21.646Z,0.10
2022-12-15T05:46:54.984Z,0.10
2022-12-15T05:49:28.287Z,0.10
2022-12-15T05:52:01.768Z,0.10
2022-12-15T05:54:35.086Z,0.10
2022-12-15T05:57:08.674Z,0.10
2022-12-15T05:59:43.301Z,0.10
2022-12-15T06:02:16.812Z,0.10
2022-12-15T06:04:50.150Z,0.10
2022-12-15T06:07:23.778Z,0.10
2022-12-15T06:09:57.043Z,0.10
2022-12-15T06:12:30.710Z,0.10
2022-12-15T06:15:06.618Z,0.10
2022-12-15T06:17:39.905Z,0.10
2022-12-15T06:20:13.551Z,0.10
2022-12-15T06:22:49.999Z,0.10
2022-12-15T06:25:23.627Z,0.10
2022-12-15T06:28:01.561Z,0.10
2022-12-15T06:30:36.571Z,0.10
2022-12-15T06:33:09.870Z,0.10
2022-12-15T06:35:43.430Z,0.20
2022-12-15T06:38:17.054Z,0.20
2022-12-15T06:40:56.676Z,0.20
2022-12-15T06:43:31.082Z,0.20
2022-12-15T06:46:06.837Z,0.20
2022-12-15T06:48:40.178Z,0.20
2022-12-15T06:51:17.071Z,0.20
2022-12-15T06:53:54.257Z,0.20
2022-12-15T06:56:33.660Z,0.20
2022-12-15T06:59:08.703Z,0.20
2022-12-15T07:01:43.702Z,0.20
2022-12-15T07:04:17.234Z,0.20
2022-12-15T07:06:50.595Z,0.20
2022-12-15T07:09:26.163Z,0.20
2022-12-15T07:11:59.770Z,0.20
2022-12-15T07:14:33.066Z,0.20
2022-12-15T07:17:09.490Z,0.20
2022-12-15T07:19:42.753Z,0.20
2022-12-15T07:22:16.070Z,0.30
2022-12-15T07:24:49.595Z,0.30
2022-12-15T07:27:22.950Z,0.30
2022-12-15T07:29:56.371Z,0.40
2022-12-15T07:32:31.216Z,0.40
2022-12-15T07:35:05.949Z,0.40
2022-12-15T07:37:39.284Z,0.40
2022-12-15T07:40:13.204Z,0.50
2022-12-15T07:42:46.556Z,0.50
2022-12-15T07:45:20.334Z,0.50
2022-12-15T07:47:54.988Z,0.50
2022-12-15T07:50:29.511Z,0.60
2022-12-15T07:53:02.864Z,0.60
2022-12-15T07:56:04.951Z,0.60
2022-12-15T07:58:30.057Z,0.60
2022-12-15T08:01:06.019Z,0.70
2022-12-15T08:03:41.629Z,0.70
2022-12-15T08:06:16.285Z,0.70
2022-12-15T08:08:50.184Z,0.70
2022-12-15T08:11:25.060Z,0.70
2022-12-15T08:14:04.115Z,0.80
2022-12-15T08:16:37.721Z,0.80
2022-12-15T08:19:15.335Z,0.80
2022-12-15T08:21:49.183Z,0.90
2022-12-15T08:24:22.435Z,1.00
2022-12-15T08:26:55.742Z,1.00
2022-12-15T08:32:22.997Z,1.10
2022-12-15T08:34:57.750Z,1.10
2022-12-15T08:37:31.133Z,1.20
2022-12-15T08:40:05.051Z,1.20
2022-12-15T08:42:39.332Z,1.20
2022-12-15T08:45:13.451Z,1.30
2022-12-15T08:47:46.703Z,1.30
2022-12-15T08:50:21.417Z,1.40
2022-12-15T08:53:21.364Z,1.50
2022-12-15T08:55:47.976Z,1.60
2022-12-15T08:58:21.608Z,1.70
2022-12-15T09:01:00.514Z,1.80
2022-12-15T09:03:35.334Z,1.80
2022-12-15T09:06:14.373Z,1.90
2022-12-15T09:08:48.556Z,2.00
2022-12-15T09:11:24.390Z,2.00
2022-12-15T09:13:58.234Z,2.10
2022-12-15T09:16:31.829Z,2.20
2022-12-15T09:19:05.304Z,2.30
2022-12-15T09:21:43.036Z,2.40
2022-12-15T09:24:25.947Z,2.50
2022-12-15T09:27:03.252Z,2.60
2022-12-15T09:29:36.755Z,2.70
2022-12-15T09:32:14.004Z,2.80
2022-12-15T09:34:47.759Z,2.90
2022-12-15T09:37:25.221Z,3.10
2022-12-15T09:39:58.501Z,3.30
2022-12-15T09:42:32.808Z,3.40
2022-12-15T09:45:14.357Z,3.30
2022-12-15T09:47:54.186Z,3.40
2022-12-15T09:50:33.861Z,3.50
2022-12-15T09:53:45.436Z,3.60
2022-12-15T09:56:14.599Z,3.60
2022-12-15T09:58:58.312Z,3.80
2022-12-15T10:01:45.320Z,3.80
2022-12-15T10:04:28.042Z,4.00
2022-12-15T10:07:09.558Z,4.00
2022-12-15T10:09:44.486Z,4.10
2022-12-15T10:12:23.618Z,4.10
2022-12-15T10:15:11.560Z,4.00
2022-12-15T10:17:50.449Z,3.90
2022-12-15T10:20:26.328Z,3.80
2022-12-15T10:23:04.136Z,3.90
2022-12-15T10:25:39.746Z,3.90
2022-12-15T10:28:30.295Z,3.90
2022-12-15T10:31:13.985Z,4.00
2022-12-15T10:33:54.661Z,4.10
2022-12-15T10:36:28.159Z,4.10
2022-12-15T10:39:01.492Z,4.10
2022-12-15T10:41:36.703Z,4.10
2022-12-15T10:44:31.843Z,4.10
2022-12-15T10:47:11.618Z,4.30
2022-12-15T10:49:44.945Z,4.40
2022-12-15T10:52:36.845Z,4.50
2022-12-15T10:55:34.263Z,4.60
2022-12-15T10:58:18.559Z,4.70
2022-12-15T11:01:08.189Z,4.70
2022-12-15T11:03:42.046Z,4.70
2022-12-15T11:06:18.487Z,4.60
2022-12-15T11:08:54.149Z,4.40
2022-12-15T11:11:48.609Z,4.40
2022-12-15T11:14:30.536Z,4.40
2022-12-15T11:17:08.421Z,4.40
2022-12-15T11:19:49.952Z,4.40
2022-12-15T11:22:32.985Z,4.30
2022-12-15T11:25:17.386Z,4.20
2022-12-15T11:27:52.811Z,4.00
2022-12-15T11:30:34.957Z,4.00
2022-12-15T11:33:10.730Z,4.00
2022-12-15T11:35:57.125Z,4.10
2022-12-15T11:38:36.563Z,4.10
2022-12-15T11:41:17.551Z,4.20
2022-12-15T11:44:20.565Z,4.30
2022-12-15T11:47:08.501Z,4.30
2022-12-15T11:50:02.238Z,4.40
2022-12-15T11:52:57.785Z,4.50
2022-12-15T11:55:41.835Z,4.40
2022-12-15T11:58:33.757Z,4.40
2022-12-15T12:01:17.864Z,4.30
2022-12-15T12:04:01.979Z,4.20
2022-12-15T12:06:43.701Z,4.30
2022-12-15T12:09:30.807Z,4.10
2022-12-15T12:12:17.244Z,4.00
2022-12-15T12:15:02.200Z,3.90
2022-12-15T12:17:42.877Z,3.90
2022-12-15T12:20:20.823Z,3.80
2022-12-15T12:23:03.247Z,3.70
2022-12-15T12:25:44.284Z,3.70
2022-12-15T12:28:23.095Z,3.60
2022-12-15T12:30:59.445Z,3.50
2022-12-15T12:33:38.060Z,3.40
2022-12-15T12:36:14.754Z,3.40
2022-12-15T12:38:51.463Z,3.40
2022-12-15T12:41:33.887Z,3.40
2022-12-15T12:44:13.714Z,3.30
2022-12-15T12:46:51.423Z,3.20
2022-12-15T12:49:31.171Z,3.20
2022-12-15T12:52:07.741Z,3.20
2022-12-15T12:54:44.207Z,3.10
2022-12-15T12:57:50.124Z,3.00
2022-12-15T13:00:26.726Z,3.00
2022-12-15T13:03:19.595Z,2.90
2022-12-15T13:05:54.690Z,2.80
2022-12-15T13:08:51.974Z,2.60
2022-12-15T13:12:14.831Z,2.60
2022-12-15T13:15:07.628Z,2.60
2022-12-15T13:17:44.966Z,2.50
2022-12-15T13:20:25.909Z,2.40
2022-12-15T13:23:33.245Z,2.40
2022-12-15T13:26:19.590Z,2.30
2022-12-15T13:28:53.927Z,2.30
2022-12-15T13:31:43.099Z,2.20
2022-12-15T13:34:22.695Z,2.20
2022-12-15T13:36:58.315Z,2.10
2022-12-15T13:40:00.951Z,2.10
2022-12-15T13:42:47.251Z,2.10
2022-12-15T13:45:36.813Z,2.00
2022-12-15T13:48:42.950Z,2.00
2022-12-15T13:51:27.013Z,2.00
2022-12-15T13:54:05.912Z,1.90
2022-12-15T13:56:56.791Z,1.90
2022-12-15T13:59:42.864Z,1.80
2022-12-15T14:02:27.944Z,1.80
2022-12-15T14:05:26.012Z,1.70
2022-12-15T14:08:03.515Z,1.70
2022-12-15T14:10:42.072Z,1.70
2022-12-15T14:13:20.978Z,1.60
2022-12-15T14:15:59.434Z,1.60
2022-12-15T14:18:35.165Z,1.50
2022-12-15T14:21:20.450Z,1.60
2022-12-15T14:24:28.862Z,1.50
2022-12-15T14:26:48.947Z,1.50
2022-12-15T14:29:24.992Z,1.50
2022-12-15T14:32:00.455Z,1.50
2022-12-15T14:34:41.284Z,1.50
2022-12-15T14:37:19.663Z,1.50
2022-12-15T14:39:54.447Z,1.40
2022-12-15T14:42:31.052Z,1.40
2022-12-15T14:45:04.662Z,1.40
2022-12-15T14:47:39.540Z,1.40
2022-12-15T14:50:13.206Z,1.40
2022-12-15T14:52:46.783Z,1.40
2022-12-15T14:55:35.380Z,1.40
2022-12-15T14:58:29.932Z,1.40
2022-12-15T15:01:07.010Z,1.40
2022-12-15T15:03:43.085Z,1.50
2022-12-15T15:06:19.804Z,1.50
2022-12-15T15:08:54.519Z,1.50
2022-12-15T15:11:31.288Z,1.50
2022-12-15T15:14:07.036Z,1.50
2022-12-15T15:16:40.720Z,1.60
2022-12-15T15:19:23.694Z,1.50
2022-12-15T15:22:02.053Z,1.60
2022-12-15T15:24:39.485Z,1.60
2022-12-15T15:27:36.406Z,1.70
2022-12-15T15:30:23.700Z,1.70
2022-12-15T15:32:58.632Z,1.70
2022-12-15T15:35:35.536Z,1.70
2022-12-15T15:38:17.620Z,1.70
2022-12-15T15:40:55.238Z,1.70
2022-12-15T15:43:30.061Z,1.80
2022-12-15T15:46:06.769Z,1.80
2022-12-15T15:48:45.158Z,1.70
2022-12-15T15:51:24.892Z,1.80
2022-12-15T15:54:01.560Z,1.80
2022-12-15T15:56:35.348Z,1.70
2022-12-15T15:59:12.795Z,1.70
2022-12-15T16:01:47.822Z,1.80
2022-12-15T16:04:21.451Z,1.80
2022-12-15T16:06:56.436Z,1.80
2022-12-15T16:09:29.812Z,1.80
2022-12-15T16:12:03.219Z,1.80
2022-12-15T16:14:36.616Z,1.80
2022-12-15T16:17:10.840Z,1.80
2022-12-15T16:19:44.219Z,1.80
2022-12-15T16:22:21.588Z,1.70
2022-12-15T16:24:54.984Z,1.80
2022-12-15T16:27:29.030Z,1.80
2022-12-15T16:30:02.455Z,1.80
2022-12-15T16:32:35.939Z,1.80
2022-12-15T16:35:10.335Z,1.70
2022-12-15T16:37:49.094Z,1.70
2022-12-15T16:40:24.651Z,1.70
2022-12-15T16:42:59.934Z,1.70
2022-12-15T16:45:33.220Z,1.70
2022-12-15T16:48:06.624Z,1.70
2022-12-15T16:50:42.208Z,1.70
2022-12-15T16:53:20.420Z,1.70
2022-12-15T16:55:56.495Z,1.70
2022-12-15T16:58:31.810Z,1.70
2022-12-15T17:01:06.157Z,1.70
2022-12-15T17:03:39.680Z,1.70
2022-12-15T17:06:16.521Z,1.70
2022-12-15T17:08:53.797Z,1.70
2022-12-15T17:11:29.821Z,1.70
2022-12-15T17:14:03.198Z,1.70
2022-12-15T17:16:36.513Z,1.70
2022-12-15T17:19:09.955Z,1.70
2022-12-15T17:21:47.744Z,1.80
2022-12-15T17:24:23.609Z,1.70
2022-12-15T17:26:57.056Z,1.70
2022-12-15T17:29:30.953Z,1.70
2022-12-15T17:32:04.359Z,1.70
2022-12-15T17:34:39.056Z,1.70
2022-12-15T17:37:15.252Z,1.70
2022-12-15T17:39:51.519Z,1.60
2022-12-15T17:42:25.141Z,1.60
2022-12-15T17:44:58.525Z,1.70
2022-12-15T17:47:31.972Z,1.70
2022-12-15T17:50:05.766Z,1.70
2022-12-15T17:52:39.580Z,1.70
2022-12-15T17:55:29.056Z,1.70
2022-12-15T17:58:17.591Z,1.70
2022-12-15T18:00:52.849Z,1.60
2022-12-15T18:03:26.327Z,1.60
2022-12-15T18:05:59.877Z,1.60
2022-12-15T18:08:35.251Z,1.60
2022-12-15T18:11:16.429Z,1.60
2022-12-15T18:13:49.887Z,1.60
2022-12-15T18:16:23.518Z,1.60
2022-12-15T18:18:57.084Z,1.60
2022-12-15T18:21:30.396Z,1.60
2022-12-15T18:24:04.276Z,1.60
2022-12-15T18:26:39.049Z,1.60
2022-12-15T18:29:14.941Z,1.60
2022-12-15T18:31:49.406Z,1.70
2022-12-15T18:34:23.666Z,1.60
2022-12-15T18:36:56.981Z,1.60
2022-12-15T18:39:31.623Z,1.60
2022-12-15T18:42:09.989Z,1.60
2022-12-15T18:44:47.018Z,1.50
2022-12-15T18:47:23.324Z,1.50
2022-12-15T18:49:56.881Z,1.50
2022-12-15T18:52:34.651Z,1.50
2022-12-15T18:55:17.020Z,1.50
2022-12-15T18:57:52.962Z,1.50
2022-12-15T19:00:30.476Z,1.50
2022-12-15T19:03:03.989Z,1.50
2022-12-15T19:05:39.982Z,1.50
2022-12-15T19:08:16.999Z,1.50
2022-12-15T19:10:53.954Z,1.50
2022-12-15T19:13:32.976Z,1.50
2022-12-15T19:16:08.884Z,1.50
2022-12-15T19:18:59.667Z,1.50
2022-12-15T19:21:51.730Z,1.50
2022-12-15T19:24:41.050Z,1.60
2022-12-15T19:27:16.143Z,1.50
2022-12-15T19:29:51.656Z,1.60
2022-12-15T19:32:26.737Z,1.60
2022-12-15T19:35:00.971Z,1.60
2022-12-15T19:37:35.994Z,1.50
2022-12-15T19:40:17.724Z,1.50
2022-12-15T19:42:52.937Z,1.40
2022-12-15T19:45:32.211Z,1.40
2022-12-15T19:48:06.299Z,1.40
2022-12-15T19:50:41.660Z,1.40
2022-12-15T19:53:22.675Z,1.40
2022-12-15T19:55:58.006Z,1.30
2022-12-15T19:58:33.742Z,1.30
2022-12-15T20:01:12.548Z,1.40
2022-12-15T20:03:47.239Z,1.40
2022-12-15T20:06:24.145Z,1.40
2022-12-15T20:08:57.997Z,1.40
2022-12-15T20:11:32.951Z,1.40
2022-12-15T20:14:12.631Z,1.40
2022-12-15T20:16:47.492Z,1.50
2022-12-15T20:19:20.896Z,1.40
2022-12-15T20:21:54.223Z,1.50
2022-12-15T20:24:27.738Z,1.50
2022-12-15T20:27:01.305Z,1.40
2022-12-15T20:29:34.626Z,1.40
2022-12-15T20:32:15.688Z,1.40
2022-12-15T20:34:49.627Z,1.40
2022-12-15T20:37:26.270Z,1.40
2022-12-15T20:39:59.776Z,1.50
2022-12-15T20:42:33.106Z,1.40
2022-12-15T20:45:07.476Z,1.50
2022-12-15T20:47:43.677Z,1.50
2022-12-15T20:50:25.911Z,1.50
2022-12-15T20:52:59.326Z,1.50
2022-12-15T20:55:34.058Z,1.50
2022-12-15T20:58:07.422Z,1.50
2022-12-15T21:00:41.419Z,1.50
2022-12-15T21:03:26.315Z,1.40
2022-12-15T21:06:00.806Z,1.50
2022-12-15T21:08:34.395Z,1.40
2022-12-15T21:11:15.679Z,1.40
2022-12-15T21:13:50.334Z,1.50
2022-12-15T21:16:26.657Z,1.40
2022-12-15T21:19:19.713Z,1.40
2022-12-15T21:21:55.949Z,1.40
2022-12-15T21:24:30.353Z,1.40
2022-12-15T21:27:04.224Z,1.40
2022-12-15T21:29:37.703Z,1.40
2022-12-15T21:32:11.160Z,1.40
2022-12-15T21:34:45.896Z,1.40
2022-12-15T21:37:25.738Z,1.40
2022-12-15T21:39:59.873Z,1.40
2022-12-15T21:42:36.625Z,1.40
2022-12-15T21:45:15.764Z,1.30
2022-12-15T21:48:07.494Z,1.40
2022-12-15T21:50:45.960Z,1.40
2022-12-15T21:53:19.462Z,1.40
2022-12-15T21:55:52.953Z,1.40
2022-12-15T21:58:27.482Z,1.40
2022-12-15T22:01:01.710Z,1.40
2022-12-15T22:03:36.911Z,1.40
2022-12-15T22:06:19.074Z,1.40
2022-12-15T22:08:53.401Z,1.40
2022-12-15T22:11:28.420Z,1.40
2022-12-15T22:14:04.366Z,1.40
2022-12-15T22:16:37.765Z,1.40
2022-12-15T22:19:13.577Z,1.30
2022-12-15T22:21:48.515Z,1.40
2022-12-15T22:24:21.954Z,1.30
2022-12-15T22:26:55.258Z,1.30
2022-12-15T22:29:31.564Z,1.30
2022-12-15T22:32:12.236Z,1.30
2022-12-15T22:34:45.536Z,1.30
2022-12-15T22:37:20.174Z,1.30
2022-12-15T22:39:53.460Z,1.40
2022-12-15T22:42:27.919Z,1.40
2022-12-15T22:45:01.445Z,1.40
2022-12-15T22:47:37.606Z,1.40
2022-12-15T22:50:16.698Z,1.40
2022-12-15T22:52:52.023Z,1.50
2022-12-15T22:55:25.472Z,1.50
2022-12-15T22:58:02.572Z,1.50
2022-12-15T23:00:35.882Z,1.50
2022-12-15T23:03:11.348Z,1.50
2022-12-15T23:05:44.749Z,1.50
2022-12-15T23:08:19.768Z,1.60
2022-12-15T23:11:10.553Z,1.60
2022-12-15T23:13:44.320Z,1.60
2022-12-15T23:16:22.289Z,1.60
2022-12-15T23:18:56.991Z,1.60
2022-12-15T23:21:30.991Z,1.60
2022-12-15T23:24:05.845Z,1.60
2022-12-15T23:26:39.376Z,1.60
2022-12-15T23:29:13.053Z,1.70
2022-12-15T23:31:46.432Z,1.60
2022-12-15T23:34:20.126Z,1.60
2022-12-15T23:36:53.464Z,1.70
2022-12-15T23:39:28.662Z,1.60
2022-12-15T23:42:02.101Z,1.60
2022-12-15T23:44:37.382Z,1.60
2022-12-15T23:47:10.840Z,1.60
2022-12-15T23:49:44.420Z,1.60
2022-12-15T23:52:18.365Z,1.60
2022-12-15T23:54:53.193Z,1.60
2022-12-15T23:57:28.712Z,1.60
